Time;durP1;ratioP1;P1;durP2;ratioP2;P2;SDS_P1;SDS_P2;PMS_P1;PMS_P2;Temp;Humidity;BMP_temperature;BMP_pressure;BME280_temperature;BME280_humidity;BME280_pressure;Samples;Min_cycle;Max_cycle;Signal;HPM_P1;HPM_P2
2024/03/06 00:01:01;;;;;;;;;;;;;;;8.68;100.00;98568.66;5042522;28;19921;-79
2024/03/06 00:03:26;;;;;;;;;;;;;;;8.70;100.00;98558.00;5033119;28;20014;-79
2024/03/06 00:05:52;;;;;;;;;;;;;;;8.72;100.00;98563.06;5030439;28;19928;-79
2024/03/06 00:08:17;;;;;;;;;;;;;;;8.66;100.00;98560.06;5030466;28;19925;-80
2024/03/06 00:10:42;;;;;;;;;;;;;;;8.61;100.00;98566.06;5031648;28;19927;-79
2024/03/06 00:13:08;;;;;;;;;;;;;;;8.56;100.00;98559.06;5030103;28;19921;-79
2024/03/06 00:15:33;;;;;;;;;;;;;;;8.47;100.00;98560.84;5030148;28;19918;-81
2024/03/06 00:17:59;;;;;;;;;;;;;;;8.40;100.00;98559.03;5030186;28;20291;-80
2024/03/06 00:20:24;;;;;;;;;;;;;;;8.29;100.00;98557.66;5030589;28;20291;-78
2024/03/06 00:22:50;;;;;;;;;;;;;;;8.18;100.00;98563.38;5030190;28;19924;-80
2024/03/06 00:25:15;;;;;;;;;;;;;;;8.11;100.00;98560.78;5030591;28;19917;-80
2024/03/06 00:27:40;;;;;;;;;;;;;;;8.09;100.00;98569.44;5031252;28;20493;-79
2024/03/06 00:30:06;;;;;;;;;;;;;;;8.06;100.00;98569.53;5030042;28;19918;-78
2024/03/06 00:32:32;;;;;;;;;;;;;;;8.03;100.00;98576.63;5034372;28;20290;-79
2024/03/06 00:34:57;;;;;;;;;;;;;;;7.99;100.00;98566.91;5019140;28;19924;-80
2024/03/06 00:37:22;;;;;;;;;;;;;;;8.04;100.00;98569.16;5032117;28;19955;-78
2024/03/06 00:39:47;;;;;;;;;;;;;;;8.03;100.00;98564.84;5017779;28;20361;-79
2024/03/06 00:42:13;;;;;;;;;;;;;;;8.02;100.00;98572.31;5035660;28;19921;-79
2024/03/06 00:44:39;;;;;;;;;;;;;;;8.01;100.00;98573.56;5033940;28;20062;-80
2024/03/06 00:47:04;;;;;;;;;;;;;;;8.00;100.00;98574.75;5017610;28;19924;-80
2024/03/06 00:49:29;;;;;;;;;;;;;;;8.00;100.00;98576.72;5023049;28;19925;-78
2024/03/06 00:51:55;;;;;;;;;;;;;;;7.94;100.00;98576.44;5015865;28;20403;-78
2024/03/06 00:54:20;;;;;;;;;;;;;;;7.93;100.00;98574.09;5034142;28;19924;-78
2024/03/06 00:56:45;;;;;;;;;;;;;;;7.84;100.00;98577.38;5017127;28;20379;-80
2024/03/06 00:59:10;;;;;;;;;;;;;;;7.80;100.00;98579.44;5034054;28;19925;-81
2024/03/06 01:01:36;;;;;;;;;;;;;;;7.81;100.00;98578.25;5038102;28;19924;-81
2024/03/06 01:04:02;;;;;;;;;;;;;;;7.75;100.00;98577.94;5022275;28;19957;-80
2024/03/06 01:06:27;;;;;;;;;;;;;;;7.63;100.00;98569.53;5032847;28;19924;-81
2024/03/06 01:08:52;;;;;;;;;;;;;;;7.57;100.00;98572.00;5044555;28;19924;-80
2024/03/06 01:11:18;;;;;;;;;;;;;;;7.60;100.00;98573.88;5015387;28;19944;-80
2024/03/06 01:13:43;;;;;;;;;;;;;;;7.60;100.00;98582.13;5024287;28;20000;-80
2024/03/06 01:16:08;;;;;;;;;;;;;;;7.60;100.00;98576.63;5033010;28;19924;-81
2024/03/06 01:18:34;;;;;;;;;;;;;;;7.64;100.00;98582.09;5033236;28;20405;-80
2024/03/06 01:20:59;;;;;;;;;;;;;;;7.58;100.00;98581.81;5016433;28;19925;-79
2024/03/06 01:23:24;;;;;;;;;;;;;;;7.60;100.00;98575.84;5034499;28;19956;-82
2024/03/06 01:25:49;;;;;;;;;;;;;;;7.56;100.00;98575.16;5032970;28;20605;-81
2024/03/06 01:28:15;;;;;;;;;;;;;;;7.50;100.00;98583.09;5033274;28;20421;-80
2024/03/06 01:30:40;;;;;;;;;;;;;;;7.51;100.00;98592.13;5033049;28;19917;-81
2024/03/06 01:33:06;;;;;;;;;;;;;;;7.47;100.00;98588.69;5033140;28;19921;-82
2024/03/06 01:35:31;;;;;;;;;;;;;;;7.50;100.00;98593.31;5033187;28;19982;-81
2024/03/06 01:37:56;;;;;;;;;;;;;;;7.53;100.00;98595.25;5033188;28;19940;-80
2024/03/06 01:40:22;;;;;;;;;;;;;;;7.50;100.00;98605.09;5032816;28;20375;-82
2024/03/06 01:42:51;;;;;;;;;;;;;;;7.49;100.00;98608.25;5033004;28;19963;-81
2024/03/06 01:45:16;;;;;;;;;;;;;;;7.45;100.00;98605.56;5033813;28;20016;-80
2024/03/06 01:47:42;;;;;;;;;;;;;;;7.49;100.00;98608.25;5032972;28;20008;-81
2024/03/06 01:50:09;;;;;;;;;;;;;;;7.50;100.00;98604.31;5034539;28;19960;-81
2024/03/06 01:52:35;;;;;;;;;;;;;;;7.40;100.00;98602.53;5043472;28;19966;-82
2024/03/06 01:55:00;;;;;;;;;;;;;;;7.38;100.00;98607.66;5037737;28;20051;-80
2024/03/06 01:57:26;;;;;;;;;;;;;;;7.34;100.00;98611.25;5032701;28;19929;-81
2024/03/06 01:59:51;;;;;;;;;;;;;;;7.01;100.00;98548.97;5032393;28;19990;-80
2024/03/06 02:02:16;;;;;;;;;;;;;;;7.39;100.00;98615.50;5032584;28;19917;-81
2024/03/06 02:04:41;;;;;;;;;;;;;;;7.42;100.00;98608.38;5016023;28;20390;-80
2024/03/06 02:07:13;;;;;;;;;;;;;;;7.41;100.00;98617.84;5021998;28;19929;-80
2024/03/06 02:09:38;;;;;;;;;;;;;;;7.39;100.00;98620.22;4993935;28;19930;-81
2024/03/06 02:12:04;;;;;;;;;;;;;;;7.52;100.00;98621.97;5009875;28;19972;-81
2024/03/06 02:14:30;;;;;;;;;;;;;;;7.56;100.00;98619.13;5008861;28;19926;-82
2024/03/06 02:16:55;;;;;;;;;;;;;;;7.50;100.00;98618.84;4994205;28;19918;-82
2024/03/06 02:19:21;;;;;;;;;;;;;;;7.57;100.00;98626.97;5009071;28;20004;-81
2024/03/06 02:21:46;;;;;;;;;;;;;;;7.57;100.00;98617.94;4992803;28;19925;-80
2024/03/06 02:24:13;;;;;;;;;;;;;;;7.57;100.00;98626.19;5008864;28;20014;-81
2024/03/06 02:26:38;;;;;;;;;;;;;;;7.65;100.00;98619.41;5002449;28;20294;-80
2024/03/06 02:29:05;;;;;;;;;;;;;;;7.70;100.00;98616.16;5009486;28;19917;-81
2024/03/06 02:31:30;;;;;;;;;;;;;;;7.70;100.00;98627.16;4992655;28;19918;-80
2024/03/06 02:33:57;;;;;;;;;;;;;;;7.71;100.00;98625.97;5011112;28;19918;-80
2024/03/06 02:36:22;;;;;;;;;;;;;;;7.61;100.00;98633.19;4999914;28;19922;-80
2024/03/06 02:38:48;;;;;;;;;;;;;;;7.53;100.00;98636.47;5015046;28;20459;-81
2024/03/06 02:41:15;;;;;;;;;;;;;;;7.52;100.00;98643.16;4993793;28;19917;-81
2024/03/06 02:43:41;;;;;;;;;;;;;;;7.42;100.00;98642.13;4992373;28;19918;-80
2024/03/06 02:46:06;;;;;;;;;;;;;;;7.35;100.00;98647.75;5008779;28;20365;-80
2024/03/06 02:48:32;;;;;;;;;;;;;;;7.38;100.00;98648.88;5009848;28;19918;-81
2024/03/06 02:50:57;;;;;;;;;;;;;;;7.29;100.00;98639.19;5002590;28;20284;-80
2024/03/06 02:53:22;;;;;;;;;;;;;;;7.17;100.00;98650.00;4995315;28;20426;-83
2024/03/06 02:55:48;;;;;;;;;;;;;;;7.07;100.00;98645.41;5008697;28;19924;-82
2024/03/06 02:58:13;;;;;;;;;;;;;;;7.04;100.00;98641.53;4991576;28;20005;-81
2024/03/06 03:00:39;;;;;;;;;;;;;;;7.05;100.00;98645.84;5007895;28;19918;-81
2024/03/06 03:03:05;;;;;;;;;;;;;;;7.03;100.00;98645.47;5008473;28;19969;-81
2024/03/06 03:05:30;;;;;;;;;;;;;;;7.00;100.00;98629.03;5008236;28;19926;-80
2024/03/06 03:07:55;;;;;;;;;;;;;;;7.05;100.00;98634.06;5008039;28;19930;-80
2024/03/06 03:10:20;;;;;;;;;;;;;;;7.04;100.00;98638.78;5008252;28;20292;-80
2024/03/06 03:12:46;;;;;;;;;;;;;;;6.99;100.00;98636.50;4991505;28;19921;-80
2024/03/06 03:15:11;;;;;;;;;;;;;;;6.90;100.00;98633.47;5007909;28;19917;-82
2024/03/06 03:17:36;;;;;;;;;;;;;;;6.83;100.00;98639.84;5008123;28;19918;-81
2024/03/06 03:20:09;;;;;;;;;;;;;;;6.75;100.00;98638.38;5008196;28;19921;-80
2024/03/06 03:22:39;;;;;;;;;;;;;;;6.79;100.00;98650.13;5005655;28;20552;-81
2024/03/06 03:25:08;;;;;;;;;;;;;;;6.73;100.00;98648.22;4982518;28;20008;-81
2024/03/06 03:27:33;;;;;;;;;;;;;;;6.73;100.00;98642.75;5008259;28;20008;-80
2024/03/06 03:29:58;;;;;;;;;;;;;;;6.65;100.00;98649.50;5003356;28;20011;-80
2024/03/06 03:32:24;;;;;;;;;;;;;;;6.57;100.00;98648.06;5004320;28;19921;-79
2024/03/06 03:34:49;;;;;;;;;;;;;;;6.52;100.00;98641.03;4998905;28;19925;-80
2024/03/06 03:37:14;;;;;;;;;;;;;;;6.48;100.00;98643.81;5008026;28;20008;-80
2024/03/06 03:39:40;;;;;;;;;;;;;;;6.46;100.00;98643.44;5007775;28;19926;-80
2024/03/06 03:42:06;;;;;;;;;;;;;;;6.38;100.00;98639.25;4992144;28;20430;-79
2024/03/06 03:44:31;;;;;;;;;;;;;;;6.45;100.00;98639.16;5002982;28;19929;-79
2024/03/06 03:46:57;;;;;;;;;;;;;;;6.34;100.00;98643.97;4994108;28;19918;-80
2024/03/06 03:49:22;;;;;;;;;;;;;;;6.29;100.00;98643.66;5002736;28;20378;-81
2024/03/06 03:51:47;;;;;;;;;;;;;;;6.26;100.00;98639.78;5003334;28;20013;-80
2024/03/06 03:54:12;;;;;;;;;;;;;;;6.26;100.00;98630.78;4997978;28;20410;-79
2024/03/06 03:56:38;;;;;;;;;;;;;;;6.22;100.00;98640.97;4991852;28;20001;-79
2024/03/06 03:59:03;;;;;;;;;;;;;;;6.24;100.00;98649.59;5006979;28;19921;-81
2024/03/06 04:01:28;;;;;;;;;;;;;;;6.22;100.00;98647.25;4990753;28;20338;-80
2024/03/06 04:03:53;;;;;;;;;;;;;;;6.10;100.00;98651.28;5002024;28;19968;-80
2024/03/06 04:06:19;;;;;;;;;;;;;;;6.08;100.00;98642.72;4994684;28;20338;-80
2024/03/06 04:08:44;;;;;;;;;;;;;;;6.07;100.00;98641.16;5030397;28;19921;-80
2024/03/06 04:11:10;;;;;;;;;;;;;;;6.10;100.00;98651.28;5031458;28;20023;-80
2024/03/06 04:13:38;;;;;;;;;;;;;;;6.17;100.00;98657.91;5034522;28;20019;-80
2024/03/06 04:16:05;;;;;;;;;;;;;;;6.30;100.00;98656.97;5034394;28;20067;-79
2024/03/06 04:18:33;;;;;;;;;;;;;;;6.33;100.00;98661.63;5044238;28;19921;-80
2024/03/06 04:21:01;;;;;;;;;;;;;;;6.27;100.00;98666.00;5019981;28;20012;-80
2024/03/06 04:23:27;;;;;;;;;;;;;;;6.22;100.00;98666.47;5035726;28;20439;-79
2024/03/06 04:25:53;;;;;;;;;;;;;;;6.15;100.00;98663.03;5034036;28;19917;-80
2024/03/06 04:28:18;;;;;;;;;;;;;;;6.08;100.00;98661.13;5034090;28;19917;-79
2024/03/06 04:30:43;;;;;;;;;;;;;;;6.15;100.00;98663.78;5033846;28;19921;-80
2024/03/06 04:33:08;;;;;;;;;;;;;;;6.12;100.00;98662.66;5017432;28;19976;-80
2024/03/06 04:35:34;;;;;;;;;;;;;;;6.13;100.00;98666.16;5047293;28;20394;-79
2024/03/06 04:38:01;;;;;;;;;;;;;;;6.10;100.00;98664.22;5034195;28;19968;-80
2024/03/06 04:40:28;;;;;;;;;;;;;;;6.12;100.00;98672.84;5035362;28;19926;-81
2024/03/06 04:42:53;;;;;;;;;;;;;;;6.16;100.00;98667.31;5035383;28;19924;-81
2024/03/06 04:45:22;;;;;;;;;;;;;;;6.09;100.00;98668.94;5033767;28;19921;-79
2024/03/06 04:47:47;;;;;;;;;;;;;;;6.08;100.00;98667.41;5043723;28;20341;-80
2024/03/06 04:50:14;;;;;;;;;;;;;;;6.04;100.00;98671.34;5020469;28;19918;-79
2024/03/06 04:52:39;;;;;;;;;;;;;;;6.16;100.00;98667.31;5029903;28;20697;-79
2024/03/06 04:55:06;;;;;;;;;;;;;;;6.18;100.00;98670.44;5021350;28;19921;-80
2024/03/06 04:57:31;;;;;;;;;;;;;;;6.16;100.00;98673.56;5033636;28;20371;-79
2024/03/06 04:59:58;;;;;;;;;;;;;;;6.15;100.00;98671.25;5016937;28;19913;-80
2024/03/06 05:02:23;;;;;;;;;;;;;;;6.26;100.00;98682.91;5033543;28;19921;-81
2024/03/06 05:04:48;;;;;;;;;;;;;;;6.34;100.00;98685.13;5036749;28;20302;-79
2024/03/06 05:07:14;;;;;;;;;;;;;;;6.37;100.00;98689.81;5045138;28;19971;-79
2024/03/06 05:09:41;;;;;;;;;;;;;;;6.33;100.00;98686.31;5034380;28;20314;-81
2024/03/06 05:12:06;;;;;;;;;;;;;;;6.36;100.00;98698.47;5016717;28;19917;-80
2024/03/06 05:14:32;;;;;;;;;;;;;;;6.29;100.00;98695.78;5034327;28;20478;-79
2024/03/06 05:16:57;;;;;;;;;;;;;;;6.26;100.00;98699.34;5033643;28;19921;-80
2024/03/06 05:19:22;;;;;;;;;;;;;;;6.23;100.00;98698.19;5033433;28;20307;-80
2024/03/06 05:21:48;;;;;;;;;;;;;;;6.20;100.00;98707.25;5034244;28;20008;-79
2024/03/06 05:24:13;;;;;;;;;;;;;;;6.37;100.00;98705.50;5034606;28;19953;-79
2024/03/06 05:26:38;;;;;;;;;;;;;;;6.50;100.00;98712.81;5035031;28;19917;-80
2024/03/06 05:29:03;;;;;;;;;;;;;;;6.66;100.00;98714.97;5016855;28;19918;-79
2024/03/06 05:31:29;;;;;;;;;;;;;;;6.93;100.00;98712.31;5032985;28;20417;-80
2024/03/06 05:33:54;;;;;;;;;;;;;;;7.15;100.00;98710.84;5016557;28;20374;-80
2024/03/06 05:36:19;;;;;;;;;;;;;;;7.36;100.00;98721.53;5033434;28;19921;-80
2024/03/06 05:38:45;;;;;;;;;;;;;;;7.56;100.00;98724.38;5016277;28;19928;-80
2024/03/06 05:41:10;;;;;;;;;;;;;;;7.67;100.00;98724.22;5034366;28;19921;-81
2024/03/06 05:43:35;;;;;;;;;;;;;;;7.98;100.00;98728.44;5036852;28;19935;-83
2024/03/06 05:46:01;;;;;;;;;;;;;;;8.33;100.00;98727.09;5045170;28;20655;-82
2024/03/06 05:48:26;;;;;;;;;;;;;;;8.82;100.00;98733.63;5031066;28;19929;-80
2024/03/06 05:50:52;;;;;;;;;;;;;;;9.01;98.50;98731.31;4997807;28;20398;-82
2024/03/06 05:53:17;;;;;;;;;;;;;;;9.10;95.85;98739.78;5015680;28;20468;-81
2024/03/06 05:55:42;;;;;;;;;;;;;;;9.42;94.93;98739.88;5022792;28;20375;-79
2024/03/06 05:58:08;;;;;;;;;;;;;;;9.62;92.97;98740.59;5029486;28;19925;-81
2024/03/06 06:00:33;;;;;;;;;;;;;;;9.72;92.41;98739.56;5032928;28;20445;-82
2024/03/06 06:02:58;;;;;;;;;;;;;;;10.03;90.12;98750.28;5032606;28;19929;-83
2024/03/06 06:05:24;;;;;;;;;;;;;;;10.18;88.96;98746.00;5024010;28;20442;-81
2024/03/06 06:07:49;;;;;;;;;;;;;;;10.96;85.92;98752.22;5041564;28;19983;-79
2024/03/06 06:10:15;;;;;;;;;;;;;;;11.06;82.00;98751.13;5031541;28;19917;-80
2024/03/06 06:12:41;;;;;;;;;;;;;;;11.23;81.33;98752.59;5014823;28;19975;-79
2024/03/06 06:15:07;;;;;;;;;;;;;;;11.11;80.61;98749.81;5015703;28;19921;-82
2024/03/06 06:17:33;;;;;;;;;;;;;;;11.35;79.71;98751.09;5014169;28;20405;-81
2024/03/06 06:19:58;;;;;;;;;;;;;;;11.56;80.70;98763.50;5007918;28;19921;-79
2024/03/06 06:22:24;;;;;;;;;;;;;;;11.48;80.53;98762.16;5019132;28;19941;-81
2024/03/06 06:24:49;;;;;;;;;;;;;;;11.64;80.90;98760.06;5003633;28;19917;-79
2024/03/06 06:27:14;;;;;;;;;;;;;;;11.70;79.59;98758.31;5016541;28;19978;-80
2024/03/06 06:29:41;;;;;;;;;;;;;;;11.61;79.84;98765.72;5035280;28;19925;-81
2024/03/06 06:32:07;;;;;;;;;;;;;;;11.96;78.43;98759.13;5019071;28;20527;-80
2024/03/06 06:34:32;;;;;;;;;;;;;;;12.40;77.67;98760.06;5030736;28;20040;-80
2024/03/06 06:36:57;;;;;;;;;;;;;;;12.40;76.03;98756.50;5031217;28;19967;-81
2024/03/06 06:39:22;;;;;;;;;;;;;;;12.39;75.87;98749.41;5032225;28;19999;-79
2024/03/06 06:41:48;;;;;;;;;;;;;;;12.40;76.10;98750.97;5031390;28;20334;-80
2024/03/06 06:44:13;;;;;;;;;;;;;;;12.11;76.74;98748.38;5032078;28;20007;-79
2024/03/06 06:46:39;;;;;;;;;;;;;;;12.32;76.98;98753.19;5015313;28;19913;-80
2024/03/06 06:49:04;;;;;;;;;;;;;;;12.47;77.62;98745.97;5033066;28;19914;-80
2024/03/06 06:51:29;;;;;;;;;;;;;;;12.24;76.94;98760.19;5018531;28;19917;-78
2024/03/06 06:53:55;;;;;;;;;;;;;;;12.43;76.92;98752.81;5032409;28;19917;-80
2024/03/06 06:56:23;;;;;;;;;;;;;;;12.46;76.88;98761.03;5020122;28;19960;-79
2024/03/06 06:58:49;;;;;;;;;;;;;;;12.60;74.56;98763.28;5036322;28;19991;-81
2024/03/06 07:01:16;;;;;;;;;;;;;;;12.57;76.58;98760.66;5030701;28;20529;-81
2024/03/06 07:03:42;;;;;;;;;;;;;;;12.69;73.98;98759.06;5012305;28;20402;-80
2024/03/06 07:06:07;;;;;;;;;;;;;;;12.72;75.28;98753.38;5028889;28;19984;-80
2024/03/06 07:08:32;;;;;;;;;;;;;;;12.81;73.71;98756.25;5038408;28;19925;-80
2024/03/06 07:10:57;;;;;;;;;;;;;;;13.12;73.81;98759.13;5015751;28;19913;-80
2024/03/06 07:13:23;;;;;;;;;;;;;;;13.09;73.13;98759.22;5030527;28;20008;-80
2024/03/06 07:15:48;;;;;;;;;;;;;;;13.07;74.10;98756.13;5028886;28;20011;-80
2024/03/06 07:18:13;;;;;;;;;;;;;;;12.83;73.90;98756.59;5030600;28;20290;-80
2024/03/06 07:20:39;;;;;;;;;;;;;;;12.35;78.19;98749.53;5031075;28;19921;-79
2024/03/06 07:23:05;;;;;;;;;;;;;;;12.32;79.78;98750.41;5031808;28;19995;-79
2024/03/06 07:25:30;;;;;;;;;;;;;;;12.36;78.04;98748.28;5030191;28;20382;-78
2024/03/06 07:27:55;;;;;;;;;;;;;;;12.46;79.71;98749.16;5037050;28;19920;-79
2024/03/06 07:30:21;;;;;;;;;;;;;;;12.36;80.50;98748.28;5038207;28;19917;-79
2024/03/06 07:32:47;;;;;;;;;;;;;;;12.01;79.86;98744.69;5031778;28;19913;-81
2024/03/06 07:35:12;;;;;;;;;;;;;;;12.08;80.81;98744.47;5030082;28;19917;-80
2024/03/06 07:37:37;;;;;;;;;;;;;;;12.14;81.38;98742.69;5036816;28;19917;-81
2024/03/06 07:40:04;;;;;;;;;;;;;;;12.06;81.16;98744.13;5038120;28;19913;-80
2024/03/06 07:42:30;;;;;;;;;;;;;;;12.18;81.86;98748.09;5000985;28;19916;-81
2024/03/06 07:44:55;;;;;;;;;;;;;;;12.10;80.51;98747.59;5042599;28;19927;-81
2024/03/06 07:47:20;;;;;;;;;;;;;;;12.08;81.52;98747.25;5031298;28;20361;-80
2024/03/06 07:49:46;;;;;;;;;;;;;;;12.16;82.82;98754.13;5030297;28;19913;-80
2024/03/06 07:52:12;;;;;;;;;;;;;;;12.33;80.73;98742.88;5013463;28;20350;-78
2024/03/06 07:54:39;;;;;;;;;;;;;;;12.68;80.46;98741.66;5030208;28;19921;-79
2024/03/06 07:57:04;;;;;;;;;;;;;;;12.90;78.06;98745.22;5030030;28;20433;-79
2024/03/06 07:59:30;;;;;;;;;;;;;;;12.83;74.97;98758.56;5031210;28;19996;-81
2024/03/06 08:01:55;;;;;;;;;;;;;;;12.96;75.63;98748.94;5013708;28;20008;-78
2024/03/06 08:04:21;;;;;;;;;;;;;;;13.02;76.31;98757.47;5013340;28;19971;-80
2024/03/06 08:06:46;;;;;;;;;;;;;;;13.08;74.88;98763.97;5000477;28;20016;-80
2024/03/06 08:09:12;;;;;;;;;;;;;;;13.17;69.97;98755.00;5030194;28;20378;-80
2024/03/06 08:11:37;;;;;;;;;;;;;;;13.17;71.34;98758.53;5029702;28;19917;-80
2024/03/06 08:14:02;;;;;;;;;;;;;;;13.31;73.70;98748.91;5029971;28;19917;-80
2024/03/06 08:16:28;;;;;;;;;;;;;;;13.67;69.94;98759.44;5029951;28;19976;-80
2024/03/06 08:18:53;;;;;;;;;;;;;;;13.85;73.44;98748.41;5030034;28;19913;-80
2024/03/06 08:21:19;;;;;;;;;;;;;;;14.25;69.13;98754.69;5029942;28;19913;-79
2024/03/06 08:23:45;;;;;;;;;;;;;;;14.39;69.43;98747.81;5013360;28;19913;-79
2024/03/06 08:26:10;;;;;;;;;;;;;;;14.62;68.07;98750.00;5013447;28;20050;-80
2024/03/06 08:28:35;;;;;;;;;;;;;;;14.79;62.89;98746.91;5013239;28;19917;-78
2024/03/06 08:31:01;;;;;;;;;;;;;;;14.53;62.66;98746.41;5013017;28;19944;-80
2024/03/06 08:33:26;;;;;;;;;;;;;;;14.52;59.23;98733.78;5013625;28;20070;-80
2024/03/06 08:35:51;;;;;;;;;;;;;;;14.61;60.24;98740.09;5042578;28;19925;-80
2024/03/06 08:38:17;;;;;;;;;;;;;;;14.78;55.46;98739.78;5031074;28;19917;-80
2024/03/06 08:40:45;;;;;;;;;;;;;;;14.98;54.60;98738.09;5029395;28;19920;-79
2024/03/06 08:43:10;;;;;;;;;;;;;;;15.28;54.11;98735.56;5029782;28;20020;-79
2024/03/06 08:45:36;;;;;;;;;;;;;;;15.15;54.38;98732.19;5042949;28;19996;-81
2024/03/06 08:48:01;;;;;;;;;;;;;;;15.23;53.68;98734.19;5030011;28;20018;-80
2024/03/06 08:50:27;;;;;;;;;;;;;;;15.28;52.25;98732.78;5013590;28;20383;-79
2024/03/06 08:52:52;;;;;;;;;;;;;;;15.22;52.96;98735.44;5029812;28;19913;-81
2024/03/06 08:55:17;;;;;;;;;;;;;;;14.81;56.92;98722.19;5030889;28;20353;-79
2024/03/06 08:57:43;;;;;;;;;;;;;;;14.87;59.71;98731.47;5034362;28;19913;-79
2024/03/06 09:00:10;;;;;;;;;;;;;;;14.92;59.69;98739.19;5046034;28;20341;-80
2024/03/06 09:02:36;;;;;;;;;;;;;;;14.79;53.82;98735.78;5034475;28;19913;-80
2024/03/06 09:05:04;;;;;;;;;;;;;;;14.87;56.89;98731.47;5033838;28;19917;-80
2024/03/06 09:07:29;;;;;;;;;;;;;;;14.94;54.33;98731.16;5016904;28;19925;-80
2024/03/06 09:09:55;;;;;;;;;;;;;;;15.04;54.17;98727.09;5032861;28;19913;-81
2024/03/06 09:12:20;;;;;;;;;;;;;;;15.03;58.16;98731.13;5016520;28;19944;-80
2024/03/06 09:14:46;;;;;;;;;;;;;;;14.88;53.98;98731.00;5033728;28;19974;-79
2024/03/06 09:17:14;;;;;;;;;;;;;;;14.89;54.29;98729.00;5034015;28;19917;-80
2024/03/06 09:19:40;;;;;;;;;;;;;;;14.88;58.17;98733.78;5033984;28;19917;-80
2024/03/06 09:22:05;;;;;;;;;;;;;;;14.90;54.36;98736.84;5033813;28;19920;-80
2024/03/06 09:24:30;;;;;;;;;;;;;;;14.93;55.35;98735.16;5032567;28;19940;-80
2024/03/06 09:26:56;;;;;;;;;;;;;;;14.73;53.00;98732.84;5032694;28;19920;-80
2024/03/06 09:29:21;;;;;;;;;;;;;;;14.53;57.89;98736.06;5032543;28;19914;-80
2024/03/06 09:31:47;;;;;;;;;;;;;;;14.75;56.99;98732.38;5016417;28;19913;-80
2024/03/06 09:34:13;;;;;;;;;;;;;;;14.67;55.40;98723.56;5047028;28;19919;-79
2024/03/06 09:36:45;;;;;;;;;;;;;;;14.59;54.78;98725.88;5044320;28;19921;-80
2024/03/06 09:39:16;;;;;;;;;;;;;;;14.60;54.99;98719.09;5034054;28;19921;-80
2024/03/06 09:41:45;;;;;;;;;;;;;;;14.72;57.82;98713.84;5032229;28;19924;-79
2024/03/06 09:44:11;;;;;;;;;;;;;;;14.79;55.81;98717.09;5033614;28;20373;-80
2024/03/06 09:46:37;;;;;;;;;;;;;;;14.93;60.37;98712.91;5015753;28;20294;-79
2024/03/06 09:49:02;;;;;;;;;;;;;;;14.98;58.37;98710.28;5016265;28;19917;-79
2024/03/06 09:51:28;;;;;;;;;;;;;;;14.97;60.80;98711.50;5032498;28;20032;-78
2024/03/06 09:53:53;;;;;;;;;;;;;;;14.54;55.82;98704.25;5016265;28;20413;-80
2024/03/06 09:56:19;;;;;;;;;;;;;;;14.61;57.72;98706.75;5032413;28;19917;-79
2024/03/06 09:58:45;;;;;;;;;;;;;;;14.90;59.59;98711.03;5033460;28;20411;-80
2024/03/06 10:01:12;;;;;;;;;;;;;;;14.84;57.56;98702.53;5033136;28;19946;-78
2024/03/06 10:03:40;;;;;;;;;;;;;;;14.94;56.53;98706.09;5032315;28;19943;-79
2024/03/06 10:06:05;;;;;;;;;;;;;;;15.19;58.30;98700.16;5033613;28;20389;-79
2024/03/06 10:08:32;;;;;;;;;;;;;;;15.35;62.89;98702.63;5030381;28;20406;-80
2024/03/06 10:10:57;;;;;;;;;;;;;;;15.01;55.52;98700.19;5032814;28;20003;-79
2024/03/06 10:13:24;;;;;;;;;;;;;;;15.03;58.21;98700.53;5031686;28;20059;-79
2024/03/06 10:15:59;;;;;;;;;;;;;;;15.16;56.25;98689.97;5033002;28;19996;-78
2024/03/06 10:18:29;;;;;;;;;;;;;;;14.97;54.80;98685.69;5027126;28;19913;-80
2024/03/06 10:20:55;;;;;;;;;;;;;;;15.04;55.10;98686.16;5032331;28;19917;-77
2024/03/06 10:23:20;;;;;;;;;;;;;;;15.23;62.70;98686.09;5033122;28;19917;-80
2024/03/06 10:25:52;;;;;;;;;;;;;;;15.52;61.22;98679.97;5032506;28;20007;-79
2024/03/06 10:28:18;;;;;;;;;;;;;;;15.67;58.58;98678.84;5025850;28;20006;-80
2024/03/06 10:30:44;;;;;;;;;;;;;;;15.66;58.43;98682.09;5015106;28;19917;-78
2024/03/06 10:33:10;;;;;;;;;;;;;;;15.67;56.21;98678.09;5032516;28;19940;-81
2024/03/06 10:35:40;;;;;;;;;;;;;;;15.18;53.07;98673.59;5028530;28;19928;-79
2024/03/06 10:38:06;;;;;;;;;;;;;;;15.47;56.63;98667.47;5023565;28;19925;-79
2024/03/06 10:40:32;;;;;;;;;;;;;;;15.64;55.67;98667.88;5031465;28;19928;-81
2024/03/06 10:43:02;;;;;;;;;;;;;;;15.82;58.38;98665.78;5027366;28;20690;-79
2024/03/06 10:45:48;;;;;;;;;;;;;;;15.95;58.89;98661.97;5014318;28;19928;-78
2024/03/06 10:48:17;;;;;;;;;;;;;;;16.06;57.30;98660.22;5014312;28;20408;-82
2024/03/06 10:50:44;;;;;;;;;;;;;;;16.05;58.73;98646.75;5039785;28;19913;-82
2024/03/06 10:53:10;;;;;;;;;;;;;;;16.25;56.52;98644.91;5032551;28;19917;-80
2024/03/06 10:55:36;;;;;;;;;;;;;;;16.28;53.93;98637.59;5004427;28;20498;-79
2024/03/06 10:58:03;;;;;;;;;;;;;;;16.27;53.89;98636.81;5031557;28;20016;-79
2024/03/06 11:00:28;;;;;;;;;;;;;;;16.35;55.27;98636.44;5032646;28;19913;-80
2024/03/06 11:02:55;;;;;;;;;;;;;;;16.44;55.08;98637.16;5018699;28;19925;-80
2024/03/06 11:05:20;;;;;;;;;;;;;;;16.12;48.55;98638.03;5013992;28;20414;-80
2024/03/06 11:07:45;;;;;;;;;;;;;;;16.05;52.90;98630.78;5015592;28;19965;-80
2024/03/06 11:10:16;;;;;;;;;;;;;;;16.18;52.93;98631.31;5006053;28;19932;-79
2024/03/06 11:12:44;;;;;;;;;;;;;;;16.15;51.60;98617.56;4990012;28;19932;-79
2024/03/06 11:15:13;;;;;;;;;;;;;;;16.29;53.75;98620.38;4991024;28;19972;-79
2024/03/06 11:17:38;;;;;;;;;;;;;;;16.50;53.46;98618.53;4992914;28;19922;-82
2024/03/06 11:20:06;;;;;;;;;;;;;;;16.54;51.63;98615.53;4990822;28;19928;-78
2024/03/06 11:22:50;;;;;;;;;;;;;;;16.38;48.34;98608.41;4990637;28;19961;-79
2024/03/06 11:25:41;;;;;;;;;;;;;;;15.94;48.54;98615.84;4992803;28;20455;-80
2024/03/06 11:28:09;;;;;;;;;;;;;;;16.18;47.37;98611.81;4962874;28;19921;-80
2024/03/06 11:30:44;;;;;;;;;;;;;;;16.60;45.55;98608.84;5007702;28;20387;-80
2024/03/06 11:33:12;;;;;;;;;;;;;;;16.85;47.61;98592.78;5006484;28;19922;-79
2024/03/06 11:35:39;;;;;;;;;;;;;;;16.93;47.63;98591.94;4979625;28;20402;-80
2024/03/06 11:38:06;;;;;;;;;;;;;;;17.21;48.40;98591.59;4986433;28;19918;-79
2024/03/06 11:40:31;;;;;;;;;;;;;;;17.70;46.63;98583.22;5003468;28;20366;-81
2024/03/06 11:42:56;;;;;;;;;;;;;;;17.40;45.80;98590.88;4986804;28;19922;-79
2024/03/06 11:45:24;;;;;;;;;;;;;;;17.45;43.40;98589.41;4997634;28;19925;-78
2024/03/06 11:47:59;;;;;;;;;;;;;;;17.29;44.15;98590.72;4986800;28;19929;-81
2024/03/06 11:50:26;;;;;;;;;;;;;;;16.95;43.45;98581.03;4990399;28;20375;-79
2024/03/06 11:52:51;;;;;;;;;;;;;;;16.90;43.36;98578.91;4991266;28;19965;-80
2024/03/06 11:55:16;;;;;;;;;;;;;;;17.21;42.98;98575.63;5006091;28;19984;-80
2024/03/06 11:57:42;;;;;;;;;;;;;;;17.16;44.09;98586.69;5002427;28;19929;-78
2024/03/06 12:00:08;;;;;;;;;;;;;;;17.06;43.88;98572.81;5006860;28;19976;-81
2024/03/06 12:02:36;;;;;;;;;;;;;;;16.98;41.98;98574.50;5005022;28;19917;-81
2024/03/06 12:05:04;;;;;;;;;;;;;;;16.95;43.50;98569.88;4989382;28;20023;-80
2024/03/06 12:07:31;;;;;;;;;;;;;;;16.84;43.49;98572.47;5011051;28;19922;-80
2024/03/06 12:09:57;;;;;;;;;;;;;;;16.71;44.29;98574.78;5029854;28;19921;-80
2024/03/06 12:12:24;;;;;;;;;;;;;;;17.04;45.01;98575.34;5026686;28;20071;-80
2024/03/06 12:14:58;;;;;;;;;;;;;;;16.88;43.92;98569.47;5028997;28;19921;-80
2024/03/06 12:17:23;;;;;;;;;;;;;;;17.11;45.19;98571.41;5029960;28;20353;-82
2024/03/06 12:19:48;;;;;;;;;;;;;;;17.21;42.74;98561.66;5029779;28;19921;-80
2024/03/06 12:22:18;;;;;;;;;;;;;;;17.22;41.91;98568.78;5029683;28;20379;-79
2024/03/06 12:24:44;;;;;;;;;;;;;;;16.97;43.37;98570.16;5028659;28;19956;-81
2024/03/06 12:27:09;;;;;;;;;;;;;;;17.06;43.99;98566.47;5029310;28;19987;-81
2024/03/06 12:29:35;;;;;;;;;;;;;;;16.91;43.78;98566.50;5032306;28;19922;-80
2024/03/06 12:32:04;;;;;;;;;;;;;;;16.86;44.85;98558.81;5015214;28;19917;-79
2024/03/06 12:34:30;;;;;;;;;;;;;;;16.96;45.72;98559.47;5016838;28;19975;-80
2024/03/06 12:36:56;;;;;;;;;;;;;;;17.12;46.57;98561.75;5034612;28;20330;-79
2024/03/06 12:39:23;;;;;;;;;;;;;;;16.92;45.55;98559.69;5013234;28;19921;-79
2024/03/06 12:41:51;;;;;;;;;;;;;;;16.67;44.92;98552.66;5017158;28;19920;-81